首页
METAR-TAF:

METAR-TAF

机场 :

戛纳, 法国

纬度: 43-33N, 经度: 006-57E, 海拔: 3米

当前天气观测

该预报发布于22分钟前的03:00 UTC
风速2节,风向多变
温度 7°C
湿度 76%
气压 1002 hPa
能见度10公里或以上
1500米以下无云,无积雨云

METAR: LFMD 170300Z AUTO VRB02KT CAVOK 07/03 Q1002 NOSIG

时间: 04:22 (03:22 UTC)

预报

该预报发布于1小时和22分钟前的02:00 UTC
预报有效从17日的 03点(UTC)到 18日的 03点(UTC)
风速3节,风向多变
能见度10公里或以上
1500米以下无云,无积雨云
成为
从 17日的 10点(UTC)到 17日的 12点(UTC)
风速10节,风向西
成为
从 17日的 20点(UTC)到 17日的 22点(UTC)
风速3节,风向多变

TAF: LFMD 170200Z 1703/1803 VRB03KT CAVOK BECMG 1710/1712 28010KT BECMG 1720/1722 VRB03KT

超过4000个机场的气象观测和天气预报(METAR&TAF报告)。

可查询的气象台以黄色和红色小点在地图上表示。

将鼠标移到小点上方,可查看气象台名称。

然后点击查看天气观测和预报。

如需切换地图:点击带黑十字的绿色按钮放大地图;点击带横线的绿色按钮缩小地图;或者点击绿色箭头查看邻近地区的地图。


METAR-TAF: